Time;durP1;ratioP1;P1;durP2;ratioP2;P2;SDS_P1;SDS_P2;PMS_P1;PMS_P2;Temp;Humidity;BMP_temperature;BMP_pressure;BME280_temperature;BME280_humidity;BME280_pressure;Samples;Min_cycle;Max_cycle;Signal;HPM_P1;HPM_P2
2021/10/17 00:00:31;;;;;;;7.35;4.20;;;11.10;99.90;;;;;;5086590;28;20085;-44
2021/10/17 00:02:56;;;;;;;7.80;4.82;;;11.10;99.90;;;;;;5087281;28;20036;-42
2021/10/17 00:05:25;;;;;;;7.90;4.80;;;11.10;99.90;;;;;;5086465;28;20434;-43
2021/10/17 00:07:52;;;;;;;8.68;4.93;;;11.10;99.90;;;;;;5086709;28;20035;-42
2021/10/17 00:10:20;;;;;;;7.75;5.43;;;11.10;99.90;;;;;;5086944;28;20438;-42
2021/10/17 00:12:48;;;;;;;8.32;4.55;;;11.10;99.90;;;;;;5086919;28;20528;-43
2021/10/17 00:15:17;;;;;;;6.97;4.50;;;11.10;99.90;;;;;;5085971;28;20433;-43
2021/10/17 00:17:44;;;;;;;8.75;4.15;;;11.00;99.90;;;;;;5087625;28;20619;-43
2021/10/17 00:20:12;;;;;;;8.90;5.20;;;11.00;99.90;;;;;;5086310;28;20043;-45
2021/10/17 00:22:39;;;;;;;7.65;4.57;;;11.00;99.90;;;;;;5086414;28;20479;-43
2021/10/17 00:25:06;;;;;;;8.70;4.70;;;11.00;99.90;;;;;;5089500;28;20073;-43
2021/10/17 00:27:31;;;;;;;7.18;4.45;;;11.10;99.90;;;;;;5090569;28;20024;-43
2021/10/17 00:29:57;;;;;;;8.90;4.70;;;11.10;99.90;;;;;;5090320;28;20067;-42
2021/10/17 00:32:22;;;;;;;8.02;4.82;;;11.00;99.90;;;;;;5090358;28;20366;-43
2021/10/17 00:34:48;;;;;;;9.68;5.20;;;11.10;99.90;;;;;;5090322;28;20434;-42
2021/10/17 00:37:16;;;;;;;8.98;5.00;;;11.10;99.90;;;;;;5090232;28;20098;-42
2021/10/17 00:39:42;;;;;;;9.52;4.97;;;11.10;99.90;;;;;;5090413;28;20028;-43
2021/10/17 00:42:07;;;;;;;8.10;4.80;;;11.00;99.90;;;;;;5089707;28;20024;-42
2021/10/17 00:44:33;;;;;;;8.93;4.80;;;11.00;99.90;;;;;;5090546;28;20036;-42
2021/10/17 00:47:01;;;;;;;7.90;4.75;;;11.00;99.90;;;;;;5090403;28;20099;-42
2021/10/17 00:49:27;;;;;;;8.38;4.68;;;11.00;99.90;;;;;;5069526;28;20411;-43
2021/10/17 00:51:52;;;;;;;7.53;4.22;;;11.00;99.90;;;;;;5083693;28;20082;-43
2021/10/17 00:54:18;;;;;;;9.48;4.82;;;11.00;99.90;;;;;;5090304;28;20016;-43
2021/10/17 00:56:45;;;;;;;7.50;4.60;;;11.00;99.90;;;;;;5089870;28;20048;-43
2021/10/17 00:59:12;;;;;;;6.13;4.03;;;11.00;99.90;;;;;;5090104;28;20602;-42
2021/10/17 01:01:38;;;;;;;9.60;4.80;;;11.00;99.90;;;;;;5090419;28;20121;-43
2021/10/17 01:04:04;;;;;;;8.98;4.55;;;11.00;99.90;;;;;;5089490;28;20066;-43
2021/10/17 01:06:30;;;;;;;5.93;4.05;;;11.00;99.90;;;;;;5089768;28;20020;-43
2021/10/17 01:08:56;;;;;;;5.80;4.25;;;11.00;99.90;;;;;;5090130;28;20027;-43
2021/10/17 01:11:22;;;;;;;8.98;4.95;;;11.00;99.90;;;;;;5089208;28;20028;-42
2021/10/17 01:13:47;;;;;;;9.98;4.80;;;11.00;99.90;;;;;;5090266;28;20058;-43
2021/10/17 01:16:13;;;;;;;12.13;5.30;;;11.00;99.90;;;;;;5089488;28;20055;-43
2021/10/17 01:18:38;;;;;;;7.75;4.43;;;11.00;99.90;;;;;;5089173;28;20529;-43
2021/10/17 01:21:05;;;;;;;7.63;4.50;;;11.00;99.90;;;;;;5090055;28;20024;-44
2021/10/17 01:23:31;;;;;;;8.68;4.38;;;11.00;99.90;;;;;;5089392;28;20050;-44
2021/10/17 01:25:56;;;;;;;7.47;4.45;;;10.90;99.90;;;;;;5089861;28;20463;-43
2021/10/17 01:28:23;;;;;;;5.45;4.50;;;11.00;99.90;;;;;;5089197;28;20380;-43
2021/10/17 01:30:49;;;;;;;8.00;4.20;;;10.90;99.90;;;;;;5089873;28;20020;-42
2021/10/17 01:33:14;;;;;;;6.28;4.05;;;10.90;99.90;;;;;;5088548;28;20054;-43
2021/10/17 01:35:40;;;;;;;8.32;4.30;;;10.90;99.90;;;;;;5088865;28;20168;-43
2021/10/17 01:38:06;;;;;;;9.32;4.20;;;10.90;99.90;;;;;;5089035;28;20466;-43
2021/10/17 01:40:34;;;;;;;9.15;4.97;;;10.90;99.90;;;;;;5089343;28;20032;-43
2021/10/17 01:43:00;;;;;;;9.40;4.90;;;10.90;99.90;;;;;;5088969;28;20016;-41
2021/10/17 01:45:25;;;;;;;7.78;4.60;;;10.90;99.90;;;;;;5089074;28;20035;-43
2021/10/17 01:47:52;;;;;;;10.50;5.90;;;10.90;99.90;;;;;;5089034;28;20078;-43
2021/10/17 01:50:19;;;;;;;6.65;4.88;;;10.90;99.90;;;;;;5089345;28;20238;-42
2021/10/17 01:52:45;;;;;;;7.03;4.30;;;10.90;99.90;;;;;;5085818;28;20036;-43
2021/10/17 01:55:11;;;;;;;11.25;5.55;;;10.90;99.90;;;;;;5089033;28;20031;-41
2021/10/17 01:57:37;;;;;;;10.10;5.05;;;10.90;99.90;;;;;;5089327;28;20039;-42
2021/10/17 02:00:05;;;;;;;11.10;5.50;;;10.90;99.90;;;;;;5084576;28;20375;-45
2021/10/17 02:02:31;;;;;;;12.27;5.00;;;10.90;99.90;;;;;;5089099;28;20024;-44
2021/10/17 02:04:57;;;;;;;7.53;4.47;;;10.90;99.90;;;;;;5088446;28;20027;-42
2021/10/17 02:07:22;;;;;;;8.30;4.38;;;10.90;99.90;;;;;;5088737;28;20030;-43
2021/10/17 02:09:48;;;;;;;10.00;4.90;;;10.90;99.90;;;;;;5088767;28;20020;-43
2021/10/17 02:12:16;;;;;;;7.35;4.15;;;10.90;99.90;;;;;;5088422;28;20032;-43
2021/10/17 02:14:41;;;;;;;9.50;4.55;;;10.90;99.90;;;;;;5088206;28;20039;-43
2021/10/17 02:17:07;;;;;;;7.88;4.18;;;10.90;99.90;;;;;;5088495;28;20024;-42
2021/10/17 02:19:33;;;;;;;11.40;4.88;;;10.90;99.90;;;;;;5088436;28;20024;-42
2021/10/17 02:21:58;;;;;;;7.03;4.70;;;10.90;99.90;;;;;;5088574;28;20438;-42
2021/10/17 02:24:24;;;;;;;9.70;4.68;;;10.90;99.90;;;;;;5088910;28;20663;-42
2021/10/17 02:26:49;;;;;;;12.02;4.80;;;10.90;99.90;;;;;;5088396;28;20028;-42
2021/10/17 02:29:15;;;;;;;10.18;4.30;;;10.90;99.90;;;;;;5087186;28;20085;-42
2021/10/17 02:31:41;;;;;;;9.52;4.68;;;10.90;99.90;;;;;;5088500;28;20060;-42
2021/10/17 02:34:06;;;;;;;8.82;4.13;;;10.90;99.90;;;;;;5087943;28;20055;-43
2021/10/17 02:36:32;;;;;;;6.88;4.20;;;10.90;99.90;;;;;;5088071;28;20016;-43
2021/10/17 02:38:58;;;;;;;8.85;4.20;;;10.90;99.90;;;;;;5088317;28;20107;-40
2021/10/17 02:41:23;;;;;;;8.05;4.25;;;10.80;99.90;;;;;;5087513;28;20016;-42
2021/10/17 02:43:49;;;;;;;8.90;3.90;;;10.80;99.90;;;;;;5088277;28;20443;-43
2021/10/17 02:46:17;;;;;;;7.93;4.13;;;10.80;99.90;;;;;;5087113;28;20566;-43
2021/10/17 02:48:43;;;;;;;10.45;4.28;;;10.80;99.90;;;;;;5087268;28;20097;-42
2021/10/17 02:51:09;;;;;;;10.25;4.55;;;10.80;99.90;;;;;;5087748;28;20027;-42
2021/10/17 02:53:35;;;;;;;6.15;4.30;;;10.80;99.90;;;;;;5067673;28;20048;-42
2021/10/17 02:56:00;;;;;;;7.60;4.40;;;10.80;99.90;;;;;;5081320;28;20024;-43
2021/10/17 02:58:26;;;;;;;8.57;4.43;;;10.80;99.90;;;;;;5088039;28;20038;-42
2021/10/17 03:00:52;;;;;;;9.57;4.53;;;10.80;99.90;;;;;;5087164;28;20063;-44
2021/10/17 03:03:17;;;;;;;7.80;4.38;;;10.80;99.90;;;;;;5087694;28;20078;-43
2021/10/17 03:05:43;;;;;;;8.32;4.40;;;10.80;99.90;;;;;;5087463;28;20398;-43
2021/10/17 03:08:09;;;;;;;8.43;4.50;;;10.80;99.90;;;;;;5087574;28;20020;-44
2021/10/17 03:10:34;;;;;;;7.93;4.30;;;10.80;99.90;;;;;;5087188;28;20055;-43
2021/10/17 03:13:00;;;;;;;7.53;4.07;;;10.80;99.90;;;;;;5087658;28;20074;-42
2021/10/17 03:15:25;;;;;;;6.53;4.40;;;10.70;99.90;;;;;;5087758;28;20020;-43
2021/10/17 03:17:53;;;;;;;8.77;4.43;;;10.70;99.90;;;;;;5086547;28;20107;-43
2021/10/17 03:20:22;;;;;;;9.38;4.40;;;10.80;99.90;;;;;;5087681;28;20147;-43
2021/10/17 03:22:47;;;;;;;8.10;4.28;;;10.80;99.90;;;;;;5087610;28;20111;-43
2021/10/17 03:25:13;;;;;;;7.90;3.97;;;10.80;99.90;;;;;;5086942;28;20107;-42
2021/10/17 03:27:38;;;;;;;8.30;4.82;;;10.70;99.90;;;;;;5087140;28;20051;-43
2021/10/17 03:30:05;;;;;;;8.93;4.65;;;10.80;99.90;;;;;;5087424;28;20024;-42
2021/10/17 03:32:31;;;;;;;8.20;4.60;;;10.70;99.90;;;;;;5086639;28;20422;-43
2021/10/17 03:34:56;;;;;;;7.72;4.47;;;10.80;99.90;;;;;;5087328;28;20024;-43
2021/10/17 03:37:22;;;;;;;6.85;4.00;;;10.80;99.90;;;;;;5087524;28;20024;-44
2021/10/17 03:39:47;;;;;;;8.48;4.50;;;10.80;99.90;;;;;;5086941;28;20410;-42
2021/10/17 03:42:15;;;;;;;11.75;4.43;;;10.70;99.90;;;;;;5086500;28;20028;-42
2021/10/17 03:44:41;;;;;;;7.57;4.30;;;10.70;99.90;;;;;;5087113;28;20020;-43
2021/10/17 03:47:06;;;;;;;7.40;4.63;;;10.70;99.90;;;;;;5086658;28;20039;-42
2021/10/17 03:49:32;;;;;;;7.07;4.13;;;10.70;99.90;;;;;;5087154;28;20024;-44
2021/10/17 03:51:58;;;;;;;8.30;4.50;;;10.70;99.90;;;;;;5086819;28;20837;-44
2021/10/17 03:54:23;;;;;;;11.32;4.75;;;10.60;99.90;;;;;;5087002;28;20457;-43
2021/10/17 03:56:49;;;;;;;9.88;4.70;;;10.60;99.90;;;;;;5086896;28;20016;-43
2021/10/17 03:59:15;;;;;;;8.65;4.88;;;10.60;99.90;;;;;;5090064;28;20073;-43
2021/10/17 04:01:41;;;;;;;7.93;4.65;;;10.60;99.90;;;;;;5090970;28;20047;-43
2021/10/17 04:04:07;;;;;;;8.57;4.57;;;10.60;99.90;;;;;;5090585;28;20058;-42
2021/10/17 04:06:34;;;;;;;8.32;5.00;;;10.60;99.90;;;;;;5091049;28;20036;-44
2021/10/17 04:09:00;;;;;;;10.13;5.05;;;10.60;99.90;;;;;;5091047;28;20028;-43
2021/10/17 04:11:25;;;;;;;8.73;5.05;;;10.50;99.90;;;;;;5091043;28;20028;-42
2021/10/17 04:13:51;;;;;;;8.00;4.78;;;10.60;99.90;;;;;;5090512;28;20519;-44
2021/10/17 04:16:16;;;;;;;8.85;4.70;;;10.60;99.90;;;;;;5091062;28;20028;-44
2021/10/17 04:18:42;;;;;;;7.20;4.55;;;10.50;99.90;;;;;;5090385;28;20423;-42
2021/10/17 04:21:07;;;;;;;8.00;4.72;;;10.50;99.90;;;;;;5090650;28;20069;-43
2021/10/17 04:23:33;;;;;;;8.98;4.57;;;10.50;99.90;;;;;;5090838;28;20541;-42
2021/10/17 04:25:58;;;;;;;9.77;4.97;;;10.50;99.90;;;;;;5090808;28;20024;-42
2021/10/17 04:28:24;;;;;;;6.43;4.40;;;10.50;99.90;;;;;;5090279;28;20555;-42
2021/10/17 04:30:49;;;;;;;8.82;4.90;;;10.50;99.90;;;;;;5090410;28;20118;-42
2021/10/17 04:33:15;;;;;;;9.18;4.95;;;10.50;99.90;;;;;;5090408;28;20024;-43
2021/10/17 04:35:40;;;;;;;6.72;4.88;;;10.40;99.90;;;;;;5090337;28;20031;-44
2021/10/17 04:38:07;;;;;;;12.00;5.60;;;10.40;99.90;;;;;;5090084;28;20039;-42
2021/10/17 04:40:33;;;;;;;7.82;5.15;;;10.40;99.90;;;;;;5091210;28;20140;-43
2021/10/17 04:43:00;;;;;;;10.50;5.50;;;10.40;99.90;;;;;;5089879;28;20024;-43
2021/10/17 04:45:26;;;;;;;8.23;4.95;;;10.40;99.90;;;;;;5089052;28;20050;-44
2021/10/17 04:47:51;;;;;;;11.02;5.07;;;10.40;99.90;;;;;;5090496;28;20397;-43
2021/10/17 04:50:17;;;;;;;7.55;5.20;;;10.40;99.90;;;;;;5090156;28;20020;-43
2021/10/17 04:52:42;;;;;;;8.35;5.75;;;10.40;99.90;;;;;;5090100;28;20064;-43
2021/10/17 04:55:08;;;;;;;10.85;5.15;;;10.40;99.90;;;;;;5089455;28;20020;-43
2021/10/17 04:57:35;;;;;;;13.48;4.90;;;10.30;99.90;;;;;;5090212;28;20035;-44
2021/10/17 05:00:02;;;;;;;8.40;5.63;;;10.30;99.90;;;;;;5089600;28;20468;-43
2021/10/17 05:02:27;;;;;;;11.40;5.30;;;10.30;99.90;;;;;;5089987;28;20479;-43
2021/10/17 05:04:53;;;;;;;8.77;4.80;;;10.30;99.90;;;;;;5089739;28;20093;-42
2021/10/17 05:07:18;;;;;;;8.80;5.78;;;10.30;99.90;;;;;;5089747;28;20039;-42
2021/10/17 05:09:44;;;;;;;10.02;6.07;;;10.30;99.90;;;;;;5089145;28;20024;-42
2021/10/17 05:12:09;;;;;;;9.75;5.75;;;10.30;99.90;;;;;;5089477;28;20051;-44
2021/10/17 05:14:35;;;;;;;10.07;6.20;;;10.20;99.90;;;;;;5089529;28;20039;-43
2021/10/17 05:17:00;;;;;;;10.07;6.13;;;10.20;99.90;;;;;;5089874;28;20082;-43
2021/10/17 05:19:26;;;;;;;10.15;6.05;;;10.20;99.90;;;;;;5089474;28;20035;-43
2021/10/17 05:21:51;;;;;;;12.35;6.10;;;10.20;99.90;;;;;;5089427;28;20031;-43
2021/10/17 05:24:17;;;;;;;11.45;5.95;;;10.10;99.90;;;;;;5089828;28;20020;-43
2021/10/17 05:26:42;;;;;;;12.23;6.28;;;10.10;99.90;;;;;;5089522;28;20666;-43
2021/10/17 05:29:08;;;;;;;8.75;5.65;;;10.10;99.90;;;;;;5089160;28;20048;-42
2021/10/17 05:31:34;;;;;;;11.40;5.60;;;10.10;99.90;;;;;;5089367;28;20038;-43
2021/10/17 05:33:59;;;;;;;10.88;6.05;;;10.10;99.90;;;;;;5089523;28;20024;-42
2021/10/17 05:36:25;;;;;;;8.15;5.40;;;10.00;99.90;;;;;;5089345;28;20463;-42
2021/10/17 05:38:50;;;;;;;9.35;6.05;;;10.00;99.90;;;;;;5089104;28;20032;-43
2021/10/17 05:41:16;;;;;;;8.48;5.45;;;10.00;99.90;;;;;;5089037;28;20519;-43
2021/10/17 05:43:42;;;;;;;12.02;5.60;;;10.00;99.90;;;;;;5089052;28;20024;-43
2021/10/17 05:46:07;;;;;;;11.15;5.88;;;10.10;99.90;;;;;;5088571;28;20020;-43
2021/10/17 05:48:33;;;;;;;9.55;5.53;;;10.10;99.90;;;;;;5089435;28;20026;-43
2021/10/17 05:50:58;;;;;;;10.40;5.97;;;10.10;99.90;;;;;;5088791;28;20107;-43
2021/10/17 05:53:24;;;;;;;10.38;5.68;;;10.10;99.90;;;;;;5088779;28;20046;-42
2021/10/17 05:55:50;;;;;;;10.60;6.10;;;10.10;99.90;;;;;;5088383;28;20052;-42
2021/10/17 05:58:15;;;;;;;10.38;6.05;;;10.10;99.90;;;;;;5088811;28;20020;-43
2021/10/17 06:00:41;;;;;;;9.35;5.75;;;10.10;99.90;;;;;;5088717;28;20024;-43
2021/10/17 06:03:08;;;;;;;11.70;6.30;;;10.00;99.90;;;;;;5088902;28;20028;-43
2021/10/17 06:05:33;;;;;;;10.82;5.85;;;10.00;99.90;;;;;;5089120;28;20111;-43
2021/10/17 06:08:00;;;;;;;9.45;5.43;;;10.00;99.90;;;;;;5088176;28;20099;-42
2021/10/17 06:10:25;;;;;;;10.85;5.65;;;10.00;99.90;;;;;;5088991;28;20533;-43
2021/10/17 06:12:51;;;;;;;9.95;6.13;;;10.00;99.90;;;;;;5087607;28;20040;-42
2021/10/17 06:15:19;;;;;;;8.77;5.40;;;10.00;99.90;;;;;;5089166;28;20356;-43
2021/10/17 06:17:45;;;;;;;10.02;5.53;;;10.00;99.90;;;;;;5088351;28;20081;-43
2021/10/17 06:20:11;;;;;;;8.00;5.65;;;10.00;99.90;;;;;;5087490;28;20028;-43
2021/10/17 06:22:37;;;;;;;10.25;5.43;;;10.00;99.90;;;;;;5087916;28;20031;-42
2021/10/17 06:25:03;;;;;;;10.80;6.00;;;10.00;99.90;;;;;;5088035;28;20111;-42
2021/10/17 06:27:28;;;;;;;13.13;6.50;;;10.00;99.90;;;;;;5087801;28;20023;-42
2021/10/17 06:29:54;;;;;;;9.20;5.57;;;10.00;99.90;;;;;;5088614;28;20471;-42
2021/10/17 06:32:19;;;;;;;9.77;6.25;;;10.10;99.90;;;;;;5087925;28;20039;-42
2021/10/17 06:34:45;;;;;;;8.38;5.45;;;10.10;99.90;;;;;;5088095;28;20073;-43
2021/10/17 06:37:11;;;;;;;9.00;5.95;;;10.10;99.90;;;;;;5087554;28;20378;-43
2021/10/17 06:39:37;;;;;;;10.38;5.70;;;10.10;99.90;;;;;;5088621;28;20417;-44
2021/10/17 06:42:03;;;;;;;9.43;5.97;;;10.10;99.90;;;;;;5087268;28;20031;-42
2021/10/17 06:44:28;;;;;;;9.93;5.30;;;10.10;99.90;;;;;;5087752;28;20032;-43
2021/10/17 06:46:54;;;;;;;9.20;5.53;;;10.20;99.90;;;;;;5087983;28;20020;-43
2021/10/17 06:49:20;;;;;;;10.18;5.78;;;10.20;99.90;;;;;;5087528;28;20498;-42
2021/10/17 06:51:46;;;;;;;8.50;5.57;;;10.20;99.90;;;;;;5087710;28;20078;-42
2021/10/17 06:54:12;;;;;;;8.73;5.78;;;10.20;99.90;;;;;;5087743;28;20031;-44
2021/10/17 06:56:37;;;;;;;11.18;6.43;;;10.20;99.90;;;;;;5087667;28;20035;-43
2021/10/17 06:59:03;;;;;;;9.52;6.13;;;10.20;99.90;;;;;;5087461;28;20023;-43
2021/10/17 07:01:29;;;;;;;9.85;6.00;;;10.30;99.90;;;;;;5087904;28;20024;-42
2021/10/17 07:03:54;;;;;;;11.48;6.40;;;10.30;99.90;;;;;;5087243;28;20031;-43
2021/10/17 07:06:20;;;;;;;11.15;5.93;;;10.40;99.90;;;;;;5087639;28;20017;-43
2021/10/17 07:08:45;;;;;;;8.15;5.97;;;10.40;99.90;;;;;;5087112;28;20020;-42
2021/10/17 07:11:11;;;;;;;8.85;5.57;;;10.40;99.90;;;;;;5087458;28;20028;-43
2021/10/17 07:13:36;;;;;;;10.07;6.30;;;10.50;99.90;;;;;;5087299;28;20047;-43
2021/10/17 07:16:02;;;;;;;9.68;5.70;;;10.50;99.90;;;;;;5075569;28;20107;-42
2021/10/17 07:18:28;;;;;;;10.00;5.47;;;10.60;99.90;;;;;;5087643;28;20036;-44
2021/10/17 07:20:53;;;;;;;9.55;5.80;;;10.60;99.90;;;;;;5086414;28;20039;-42
2021/10/17 07:23:20;;;;;;;10.68;5.88;;;10.60;99.90;;;;;;5087022;28;20024;-42
2021/10/17 07:25:45;;;;;;;11.18;6.18;;;10.60;99.90;;;;;;5087341;28;20024;-42
2021/10/17 07:28:11;;;;;;;10.43;6.00;;;10.60;99.90;;;;;;5087677;28;20432;-42
2021/10/17 07:30:37;;;;;;;9.48;5.63;;;10.50;99.90;;;;;;5087275;28;20608;-43
2021/10/17 07:33:03;;;;;;;11.30;5.90;;;10.50;99.90;;;;;;5086980;28;20043;-43
2021/10/17 07:35:29;;;;;;;9.75;5.55;;;10.60;99.90;;;;;;5087082;28;20024;-42
2021/10/17 07:37:55;;;;;;;9.13;5.45;;;10.60;99.90;;;;;;5086724;28;20024;-42
2021/10/17 07:40:21;;;;;;;9.90;5.80;;;10.70;99.90;;;;;;5086734;28;20095;-43
2021/10/17 07:42:47;;;;;;;11.38;5.28;;;10.70;99.90;;;;;;5087666;28;20048;-43
2021/10/17 07:45:12;;;;;;;10.02;5.60;;;10.70;99.90;;;;;;5086361;28;20093;-42
2021/10/17 07:47:38;;;;;;;8.07;5.60;;;10.70;99.90;;;;;;5087075;28;20471;-43
2021/10/17 07:50:05;;;;;;;10.00;4.97;;;10.80;99.90;;;;;;5087065;28;20023;-43
2021/10/17 07:52:31;;;;;;;10.75;5.82;;;10.80;99.90;;;;;;5086722;28;20048;-43
2021/10/17 07:54:58;;;;;;;9.88;5.50;;;10.90;99.90;;;;;;5086388;28;20047;-43
2021/10/17 07:57:24;;;;;;;10.32;6.78;;;10.90;99.90;;;;;;5075217;28;20127;-44
2021/10/17 07:59:49;;;;;;;11.02;6.43;;;10.90;99.90;;;;;;5086662;28;20116;-42
2021/10/17 08:02:14;;;;;;;12.07;7.28;;;11.00;99.90;;;;;;5086758;28;20028;-42
2021/10/17 08:04:40;;;;;;;9.65;6.00;;;11.10;99.90;;;;;;5087515;28;20016;-44
2021/10/17 08:07:06;;;;;;;9.30;6.13;;;11.20;99.90;;;;;;5085883;28;20012;-43
2021/10/17 08:09:32;;;;;;;11.23;5.40;;;11.30;99.90;;;;;;5087158;28;20498;-43
2021/10/17 08:11:59;;;;;;;11.32;6.35;;;11.40;99.90;;;;;;5085916;28;20066;-43
2021/10/17 08:14:25;;;;;;;10.18;5.18;;;11.40;99.90;;;;;;5086940;28;20988;-45
2021/10/17 08:16:51;;;;;;;10.80;5.68;;;11.50;99.90;;;;;;5086421;28;20107;-42
2021/10/17 08:19:16;;;;;;;7.93;5.63;;;11.60;99.90;;;;;;5086953;28;20024;-43
2021/10/17 08:21:42;;;;;;;8.15;5.80;;;11.60;99.90;;;;;;5086981;28;20739;-43
2021/10/17 08:24:08;;;;;;;10.50;6.40;;;11.70;99.90;;;;;;5085847;28;20450;-43
2021/10/17 08:26:33;;;;;;;7.82;5.20;;;11.80;99.90;;;;;;5086785;28;20066;-43
2021/10/17 08:28:59;;;;;;;7.97;5.13;;;11.80;99.90;;;;;;5086399;28;20111;-44
2021/10/17 08:31:24;;;;;;;11.27;6.32;;;11.90;99.90;;;;;;5086857;28;20035;-43
2021/10/17 08:33:50;;;;;;;12.35;6.13;;;12.00;99.90;;;;;;5086433;28;20051;-42
2021/10/17 08:36:15;;;;;;;11.77;6.55;;;12.00;99.90;;;;;;5086354;28;20708;-43
2021/10/17 08:38:41;;;;;;;8.93;5.90;;;12.00;99.90;;;;;;5086686;28;20402;-42
2021/10/17 08:41:07;;;;;;;11.88;5.68;;;12.10;99.90;;;;;;5086007;28;20470;-43
2021/10/17 08:43:33;;;;;;;9.70;5.32;;;12.10;99.90;;;;;;5087045;28;20629;-43
2021/10/17 08:45:58;;;;;;;7.30;5.22;;;12.10;99.90;;;;;;5089113;28;20024;-44
2021/10/17 08:48:32;;;;;;;7.70;4.95;;;12.10;99.90;;;;;;5090063;28;20417;-43
2021/10/17 08:50:58;;;;;;;11.23;5.55;;;12.10;99.90;;;;;;5090031;28;20390;-42
2021/10/17 08:53:25;;;;;;;10.68;5.40;;;12.10;99.90;;;;;;5089944;28;20048;-43
2021/10/17 08:55:50;;;;;;;9.27;5.40;;;12.20;99.90;;;;;;5089994;28;20050;-43
2021/10/17 08:58:16;;;;;;;8.73;5.40;;;12.20;99.90;;;;;;5089945;28;20083;-45
2021/10/17 09:00:41;;;;;;;8.50;5.50;;;12.30;99.90;;;;;;5090240;28;20086;-42
2021/10/17 09:03:07;;;;;;;8.70;4.90;;;12.30;99.90;;;;;;5089336;28;20028;-43
2021/10/17 09:05:43;;;;;;;9.63;5.40;;;12.40;99.90;;;;;;5090144;28;20482;-43
2021/10/17 09:08:10;;;;;;;9.75;5.43;;;12.40;99.90;;;;;;5089773;28;20370;-43
2021/10/17 09:10:36;;;;;;;8.80;5.30;;;12.40;99.90;;;;;;5090482;28;20107;-44
2021/10/17 09:13:14;;;;;;;8.40;5.18;;;12.50;99.90;;;;;;5089057;28;20035;-43
2021/10/17 09:15:41;;;;;;;9.45;5.07;;;12.50;99.90;;;;;;5089815;28;20060;-43
2021/10/17 09:18:25;;;;;;;8.20;4.85;;;12.50;99.90;;;;;;5089315;28;20016;-43
2021/10/17 09:20:56;;;;;;;8.27;5.13;;;12.60;99.90;;;;;;5089544;28;20028;-42
2021/10/17 09:23:22;;;;;;;8.55;4.97;;;12.60;99.90;;;;;;5089094;28;20035;-43
2021/10/17 09:25:49;;;;;;;11.00;5.20;;;12.70;99.90;;;;;;5090092;28;20019;-42
2021/10/17 09:28:16;;;;;;;7.95;5.03;;;12.70;99.90;;;;;;5089263;28;20023;-43
2021/10/17 09:30:42;;;;;;;9.52;5.00;;;12.80;99.90;;;;;;5089615;28;20089;-43
2021/10/17 09:33:14;;;;;;;7.13;4.88;;;12.80;99.90;;;;;;5088461;28;20118;-42
2021/10/17 09:35:40;;;;;;;9.73;4.63;;;12.80;99.90;;;;;;5089709;28;20021;-42
2021/10/17 09:38:05;;;;;;;6.13;4.13;;;12.80;99.90;;;;;;5088402;28;20012;-42
2021/10/17 09:40:33;;;;;;;9.38;4.93;;;12.90;99.90;;;;;;5089438;28;20016;-44
2021/10/17 09:43:05;;;;;;;7.22;4.18;;;12.80;99.90;;;;;;5089009;28;20040;-42
2021/10/17 09:45:31;;;;;;;8.57;4.60;;;12.90;99.90;;;;;;5088623;28;20027;-43
2021/10/17 09:48:00;;;;;;;6.75;4.43;;;12.90;99.90;;;;;;5088697;28;20390;-43
2021/10/17 09:50:26;;;;;;;7.65;4.85;;;12.90;99.90;;;;;;5088526;28;20020;-43
2021/10/17 09:52:57;;;;;;;7.32;4.53;;;13.00;99.90;;;;;;5088971;28;20052;-43
2021/10/17 09:55:24;;;;;;;10.05;4.78;;;13.10;99.90;;;;;;5088331;28;20520;-43
2021/10/17 09:57:53;;;;;;;7.78;4.85;;;13.30;99.90;;;;;;5089294;28;20020;-43
2021/10/17 10:00:21;;;;;;;9.00;5.30;;;13.30;99.90;;;;;;5088951;28;20418;-42
2021/10/17 10:02:49;;;;;;;6.25;4.50;;;13.40;99.90;;;;;;5089148;28;20016;-43
2021/10/17 10:05:16;;;;;;;11.73;5.60;;;13.50;99.90;;;;;;5087753;28;20094;-43
2021/10/17 10:07:43;;;;;;;9.43;5.10;;;13.50;99.90;;;;;;5089232;28;20085;-42
2021/10/17 10:10:09;;;;;;;6.53;4.93;;;13.60;99.90;;;;;;5088035;28;20031;-42
2021/10/17 10:12:39;;;;;;;9.48;5.05;;;13.70;99.90;;;;;;5088185;28;20483;-43
2021/10/17 10:15:06;;;;;;;7.00;4.22;;;13.70;99.90;;;;;;5088539;28;20032;-43
2021/10/17 10:17:34;;;;;;;10.95;5.20;;;13.80;99.90;;;;;;5088822;28;20043;-43
2021/10/17 10:20:00;;;;;;;6.63;4.30;;;13.80;99.80;;;;;;5087988;28;20035;-43
2021/10/17 10:22:28;;;;;;;9.90;4.10;;;13.90;99.80;;;;;;5088406;28;20024;-42
2021/10/17 10:24:55;;;;;;;8.18;4.57;;;13.90;99.80;;;;;;5087649;28;20429;-43
2021/10/17 10:27:22;;;;;;;9.15;5.55;;;13.90;99.70;;;;;;5087758;28;20032;-42
2021/10/17 10:29:47;;;;;;;8.82;6.57;;;14.00;99.60;;;;;;5088836;28;20028;-42
2021/10/17 10:32:25;;;;;;;7.85;5.18;;;14.00;99.60;;;;;;5087653;28;20040;-43
2021/10/17 10:34:54;;;;;;;7.30;4.97;;;14.00;99.60;;;;;;5087968;28;20360;-42
2021/10/17 10:37:25;;;;;;;8.05;5.32;;;14.10;99.50;;;;;;5084682;28;20020;-43
2021/10/17 10:40:03;;;;;;;9.35;5.38;;;14.10;99.40;;;;;;5088018;28;20081;-43
2021/10/17 10:42:43;;;;;;;9.88;5.45;;;14.20;99.40;;;;;;5088008;28;20480;-42
2021/10/17 10:45:35;;;;;;;9.73;5.90;;;14.20;99.40;;;;;;5087199;28;20107;-44
2021/10/17 10:48:13;;;;;;;7.35;4.70;;;14.20;99.40;;;;;;5086409;28;20074;-43
2021/10/17 10:50:44;;;;;;;7.00;4.47;;;14.20;99.40;;;;;;5087928;28;20028;-43
2021/10/17 10:53:10;;;;;;;6.57;4.20;;;14.20;99.20;;;;;;5086800;28;20056;-42
2021/10/17 10:55:49;;;;;;;6.43;4.90;;;14.20;99.00;;;;;;5087793;28;20137;-42
2021/10/17 10:58:22;;;;;;;8.70;4.60;;;14.20;99.10;;;;;;5086932;28;20180;-43
2021/10/17 11:00:47;;;;;;;7.65;4.88;;;14.30;99.10;;;;;;5087721;28;20058;-43
2021/10/17 11:03:15;;;;;;;6.55;4.28;;;14.30;99.00;;;;;;5087380;28;20051;-42
2021/10/17 11:06:01;;;;;;;6.80;4.55;;;14.40;99.00;;;;;;5088459;28;20099;-42
2021/10/17 11:08:26;;;;;;;8.73;4.93;;;14.50;99.00;;;;;;5087078;28;20028;-43
2021/10/17 11:10:52;;;;;;;7.38;5.13;;;14.50;98.70;;;;;;5087990;28;20585;-42
2021/10/17 11:13:27;;;;;;;11.35;5.97;;;14.60;98.70;;;;;;5086903;28;20675;-44
2021/10/17 11:15:52;;;;;;;6.55;4.72;;;14.60;98.60;;;;;;5087752;28;20132;-43
2021/10/17 11:18:18;;;;;;;6.85;4.75;;;14.60;98.90;;;;;;5086765;28;20164;-43
2021/10/17 11:20:47;;;;;;;11.00;5.35;;;14.60;98.70;;;;;;5087949;28;20097;-42
2021/10/17 11:23:22;;;;;;;8.48;5.05;;;14.60;98.30;;;;;;5086201;28;20032;-44
2021/10/17 11:25:58;;;;;;;7.45;3.88;;;14.60;98.30;;;;;;5067223;28;20452;-45
2021/10/17 11:28:25;;;;;;;7.15;5.32;;;14.50;98.30;;;;;;5083974;28;20080;-43
2021/10/17 11:31:07;;;;;;;7.25;4.93;;;14.50;98.20;;;;;;5066912;28;20055;-44
2021/10/17 11:33:33;;;;;;;5.88;4.25;;;14.50;98.20;;;;;;5083687;28;20101;-42
2021/10/17 11:35:59;;;;;;;7.03;4.47;;;14.40;98.20;;;;;;5086432;28;20016;-42
2021/10/17 11:38:25;;;;;;;6.85;4.60;;;14.40;98.30;;;;;;5087131;28;20038;-43
2021/10/17 11:40:59;;;;;;;8.18;4.38;;;14.40;98.40;;;;;;5087508;28;20031;-43
2021/10/17 11:43:38;;;;;;;6.95;4.32;;;14.40;98.20;;;;;;5086595;28;20504;-44
2021/10/17 11:46:15;;;;;;;7.80;5.30;;;14.50;98.20;;;;;;5066587;28;20032;-42
2021/10/17 11:48:42;;;;;;;8.90;4.18;;;14.50;97.80;;;;;;5080789;28;20073;-42
2021/10/17 11:51:10;;;;;;;5.55;4.22;;;14.50;97.70;;;;;;5086073;28;20132;-43
2021/10/17 11:53:36;;;;;;;7.57;3.53;;;14.60;97.70;;;;;;5086827;28;20063;-43
2021/10/17 11:56:02;;;;;;;5.85;4.07;;;14.60;97.70;;;;;;5087212;28;20038;-42
2021/10/17 11:58:29;;;;;;;5.18;3.92;;;14.70;97.80;;;;;;5086637;28;20035;-43
2021/10/17 12:01:14;;;;;;;6.70;3.67;;;14.70;97.80;;;;;;5086823;28;20012;-43
2021/10/17 12:03:41;;;;;;;4.97;3.88;;;14.80;97.90;;;;;;5087009;28;20024;-44
2021/10/17 12:06:20;;;;;;;8.40;3.92;;;14.80;97.80;;;;;;5086402;28;20385;-44
2021/10/17 12:08:51;;;;;;;5.43;3.95;;;14.90;97.60;;;;;;5087255;28;20024;-43
2021/10/17 12:11:16;;;;;;;6.07;3.47;;;14.90;97.60;;;;;;5085964;28;20017;-43
2021/10/17 12:13:45;;;;;;;5.10;3.60;;;15.00;97.60;;;;;;5087166;28;20032;-43
2021/10/17 12:16:16;;;;;;;6.55;4.05;;;15.00;97.50;;;;;;5086246;28;20054;-43
2021/10/17 12:18:55;;;;;;;6.53;3.60;;;15.10;97.20;;;;;;5087409;28;20470;-43
2021/10/17 12:21:23;;;;;;;6.75;3.65;;;15.10;97.20;;;;;;5079955;28;20016;-42
2021/10/17 12:23:51;;;;;;;3.90;3.25;;;15.20;96.90;;;;;;5090656;28;20020;-43
2021/10/17 12:26:24;;;;;;;5.88;3.67;;;15.20;96.90;;;;;;5090374;28;20016;-44
2021/10/17 12:29:15;;;;;;;6.38;3.60;;;15.30;96.20;;;;;;5090760;28;20036;-42
2021/10/17 12:31:43;;;;;;;6.38;3.20;;;15.30;96.40;;;;;;5080634;28;20024;-43
2021/10/17 12:34:10;;;;;;;6.35;3.22;;;15.30;96.50;;;;;;5089736;28;20490;-42
2021/10/17 12:36:38;;;;;;;4.32;2.80;;;15.40;96.90;;;;;;5091160;28;20414;-43
2021/10/17 12:39:07;;;;;;;8.07;3.70;;;15.50;96.70;;;;;;5090597;28;20085;-43
2021/10/17 12:41:34;;;;;;;5.95;3.55;;;15.50;96.70;;;;;;5091269;28;20020;-44
2021/10/17 12:44:10;;;;;;;5.53;3.40;;;15.60;96.70;;;;;;5090590;28;20165;-43